Coastal Nomad — WDC6439 — position and weather

sailwx.info

Track history (hours):
 
Tides and Currents Weather Stations Pressure Air Temp Water Temp Dewpoint Dewpoint Depression Visibility Wind Speed Wind Dir Waves Ship Positions

Coastal Nomad

Owner: Coastal Transportation, Inc., Seattle, WA. More information available from US FCC via Universal Licensing System and Coast Guard Vessel Documentation Center.

Last reported at 2014-Sep-23 22:29 UTC. Time now 2014-Nov-01 13:11 UTC.
Position N 47°17' W 122°27'.
Warning: this ship's position is 38 days out of date.

Length 74 m; draft 5.7 m.

Type: Cargo ship. MMSI: 303683000.

Date/timePositionNaut miles runAvg speedWind from/ knotsBaromVisibWave heightAir tempDewpointWater temp
2014-Sep-23 22:29N 47°17' W 122°27'0 0.0
2014-Sep-23 22:29N 47°17' W 122°27'1010.7
2014-Sep-23 21:33N 47°26' W 122°24'114.2
2014-Sep-23 21:29N 47°27' W 122°25'1212.7
2014-Sep-23 20:34N 47°39' W 122°28'015.3
2014-Sep-23 20:33N 47°39' W 122°28'3 3.0
2014-Sep-23 19:34N 47°40' W 122°24'0 0.0
2014-Sep-23 19:33N 47°40' W 122°24'0 0.3
2014-Sep-23 18:33N 47°40' W 122°24'0 0.0
2014-Sep-23 17:33N 47°40' W 122°24'0 0.0
2014-Sep-23 17:33N 47°40' W 122°24'0 0.3
2014-Sep-23 16:33N 47°40' W 122°23'1 0.5
2014-Sep-23 15:25N 47°39' W 122°22'0 0.0
2014-Sep-23 14:33N 47°39' W 122°22'  
2014-Sep-18 15:33N 47°39' W 122°22'1 1.0
2014-Sep-18 14:33N 47°40' W 122°24'0 0.3
2014-Sep-18 13:33N 47°40' W 122°24'8 7.6
2014-Sep-18 12:34N 47°47' W 122°27'1010.3
2014-Sep-18 11:33N 47°57' W 122°34'11 9.5
2014-Sep-18 10:23N 48°07' W 122°41'9 9.4
2014-Sep-18 09:29N 48°11' W 122°52'1010.6
2014-Sep-18 08:32N 48°12' W 123°07'1111.5
2014-Sep-18 07:33N 48°13' W 123°24'1111.2
2014-Sep-18 06:33N 48°14' W 123°40'1212.1
2014-Sep-18 05:33N 48°14' W 123°58'1212.2
2014-Sep-18 04:33N 48°19' W 124°15'1111.3
2014-Sep-18 03:33N 48°24' W 124°30'1211.6
2014-Sep-18 02:34N 48°29' W 124°46'1211.7
2014-Sep-18 01:29N 48°29' W 125°05'1111.3
2014-Sep-18 00:33N 48°33' W 125°20'1211.7
2014-Sep-17 23:34N 48°40' W 125°34'1211.6
2014-Sep-17 22:33N 48°46' W 125°49'1211.8
2014-Sep-17 21:33N 48°53' W 126°04'1211.7
2014-Sep-17 20:33N 48°59' W 126°18'  
Track history (hours):
 
Tides and Currents Weather Stations Pressure Air Temp Water Temp Dewpoint Dewpoint Depression Visibility Wind Speed Wind Dir Waves Ship Positions

Coastal Nomad

Owner: Coastal Transportation, Inc., Seattle, WA. More information available from US FCC via Universal Licensing System and Coast Guard Vessel Documentation Center.

Last reported at 2014-Sep-23 22:29 UTC. Time now 2014-Nov-01 13:11 UTC.
Position N 47°17' W 122°27'.
Warning: this ship's position is 38 days out of date.

Length 74 m; draft 5.7 m.

Type: Cargo ship. MMSI: 303683000.

Date/timePositionNaut miles runAvg speedWind from/ knotsBaromVisibWave heightAir tempDewpointWater temp
2014-Sep-23 22:29N 47°17' W 122°27'0 0.0
2014-Sep-23 22:29N 47°17' W 122°27'1010.7
2014-Sep-23 21:33N 47°26' W 122°24'114.2
2014-Sep-23 21:29N 47°27' W 122°25'1212.7
2014-Sep-23 20:34N 47°39' W 122°28'015.3
2014-Sep-23 20:33N 47°39' W 122°28'3 3.0
2014-Sep-23 19:34N 47°40' W 122°24'0 0.0
2014-Sep-23 19:33N 47°40' W 122°24'0 0.3
2014-Sep-23 18:33N 47°40' W 122°24'0 0.0
2014-Sep-23 17:33N 47°40' W 122°24'0 0.0
2014-Sep-23 17:33N 47°40' W 122°24'0 0.3
2014-Sep-23 16:33N 47°40' W 122°23'1 0.5
2014-Sep-23 15:25N 47°39' W 122°22'0 0.0
2014-Sep-23 14:33N 47°39' W 122°22'  
2014-Sep-18 15:33N 47°39' W 122°22'1 1.0
2014-Sep-18 14:33N 47°40' W 122°24'0 0.3
2014-Sep-18 13:33N 47°40' W 122°24'8 7.6
2014-Sep-18 12:34N 47°47' W 122°27'1010.3
2014-Sep-18 11:33N 47°57' W 122°34'11 9.5
2014-Sep-18 10:23N 48°07' W 122°41'9 9.4
2014-Sep-18 09:29N 48°11' W 122°52'1010.6
2014-Sep-18 08:32N 48°12' W 123°07'1111.5
2014-Sep-18 07:33N 48°13' W 123°24'1111.2
2014-Sep-18 06:33N 48°14' W 123°40'1212.1
2014-Sep-18 05:33N 48°14' W 123°58'1212.2
2014-Sep-18 04:33N 48°19' W 124°15'1111.3
2014-Sep-18 03:33N 48°24' W 124°30'1211.6
2014-Sep-18 02:34N 48°29' W 124°46'1211.7
2014-Sep-18 01:29N 48°29' W 125°05'1111.3
2014-Sep-18 00:33N 48°33' W 125°20'1211.7
2014-Sep-17 23:34N 48°40' W 125°34'1211.6
2014-Sep-17 22:33N 48°46' W 125°49'1211.8
2014-Sep-17 21:33N 48°53' W 126°04'1211.7
2014-Sep-17 20:33N 48°59' W 126°18'  

Dump ship's entire track history